Time;durP1;ratioP1;P1;durP2;ratioP2;P2;SDS_P1;SDS_P2;PMS_P1;PMS_P2;Temp;Humidity;BMP_temperature;BMP_pressure;BME280_temperature;BME280_humidity;BME280_pressure;Samples;Min_cycle;Max_cycle;Signal;HPM_P1;HPM_P2
2022/12/22 03:27:44;;;;;;;4.43;2.55;;;;;;;7.25;100.00;99584.66;5173419;28;20076;-77
2022/12/22 03:30:14;;;;;;;4.88;2.85;;;;;;;7.28;100.00;99573.25;5170108;28;20499;-77
2022/12/22 03:32:45;;;;;;;5.38;2.78;;;;;;;7.26;100.00;99575.97;5173347;28;20028;-77
2022/12/22 03:35:15;;;;;;;5.80;2.47;;;;;;;7.18;100.00;99578.84;5171591;28;20403;-75
2022/12/22 03:37:45;;;;;;;5.38;2.90;;;;;;;7.10;100.00;99577.44;5166142;28;20073;-74
2022/12/22 03:40:16;;;;;;;4.18;2.80;;;;;;;7.17;100.00;99566.75;5169504;28;20582;-75
2022/12/22 03:48:24;;;;;;;4.57;3.08;;;;;;;7.08;100.00;99548.09;5177563;28;20037;-76
2022/12/22 03:50:55;;;;;;;4.53;3.00;;;;;;;7.06;100.00;99545.53;5176052;28;20452;-77
2022/12/22 03:53:25;;;;;;;3.90;2.72;;;;;;;7.04;100.00;99542.16;5175712;28;20713;-78
2022/12/22 03:55:55;;;;;;;4.25;2.92;;;;;;;7.01;100.00;99534.47;5173962;28;20033;-76
2022/12/22 03:58:27;;;;;;;5.93;3.47;;;;;;;7.07;100.00;99536.84;5175179;28;20527;-75
2022/12/22 04:01:05;;;;;;;4.57;3.05;;;;;;;7.05;100.00;99532.59;5172588;28;20022;-75
2022/12/22 04:03:36;;;;;;;4.47;3.40;;;;;;;7.01;100.00;99531.88;5186813;28;20455;-75
2022/12/22 04:06:06;;;;;;;5.28;3.20;;;;;;;6.96;100.00;99535.56;5185869;28;20061;-75
2022/12/22 04:08:36;;;;;;;5.15;3.53;;;;;;;6.98;100.00;99521.63;5166500;28;20511;-74
2022/12/22 04:13:59;;;;;;;5.78;3.58;;;;;;;7.09;100.00;99519.44;5166287;28;20030;-74
2022/12/22 04:16:30;;;;;;;4.70;3.65;;;;;;;7.10;100.00;99520.28;5172534;28;20034;-76
2022/12/22 04:19:00;;;;;;;4.93;3.70;;;;;;;7.05;100.00;99517.88;5189860;28;20501;-75
2022/12/22 04:21:30;;;;;;;4.72;3.63;;;;;;;7.10;100.00;99518.53;5172801;28;20030;-78
2022/12/22 04:24:01;;;;;;;4.97;3.90;;;;;;;7.12;100.00;99508.09;5170976;28;20029;-76
2022/12/22 04:26:31;;;;;;;5.25;3.97;;;;;;;7.09;100.00;99511.63;5171126;28;20033;-78
2022/12/22 04:29:02;;;;;;;5.63;3.80;;;;;;;7.07;100.00;99515.22;5169053;28;20040;-77
2022/12/22 04:31:32;;;;;;;5.75;3.83;;;;;;;7.18;100.00;99507.84;5170369;28;20567;-76
2022/12/22 04:34:02;;;;;;;6.78;3.67;;;;;;;7.06;100.00;99513.50;5185891;28;20034;-77
2022/12/22 04:36:32;;;;;;;7.63;4.45;;;;;;;7.05;100.00;99498.81;5167846;28;20037;-77
2022/12/22 04:39:03;;;;;;;5.90;4.35;;;;;;;7.15;100.00;99495.84;5181503;28;20121;-77
2022/12/22 04:41:33;;;;;;;6.57;4.35;;;;;;;7.10;100.00;99502.13;5168412;28;20034;-77
2022/12/22 04:44:03;;;;;;;5.72;4.10;;;;;;;7.11;100.00;99496.84;5170025;28;20401;-76
2022/12/22 04:46:34;;;;;;;5.53;4.07;;;;;;;7.27;100.00;99500.53;5167516;28;20105;-76
2022/12/22 04:49:04;;;;;;;5.13;4.03;;;;;;;7.11;100.00;99481.25;5187494;28;20079;-78
2022/12/22 04:51:34;;;;;;;5.13;3.97;;;;;;;7.09;100.00;99482.25;5166686;28;20026;-78
2022/12/22 04:54:04;;;;;;;7.28;4.15;;;;;;;7.27;100.00;99465.94;5170525;28;20476;-78
2022/12/22 04:56:35;;;;;;;5.80;3.90;;;;;;;7.40;100.00;99466.22;5170153;28;20156;-76
2022/12/22 04:59:05;;;;;;;4.95;3.80;;;;;;;7.46;100.00;99471.16;5166759;28;20033;-77
2022/12/22 05:01:36;;;;;;;6.15;4.07;;;;;;;7.51;100.00;99465.78;5182577;28;20389;-75
2022/12/22 05:04:06;;;;;;;6.78;3.67;;;;;;;7.41;100.00;99459.25;5169429;28;20281;-79
2022/12/22 05:06:37;;;;;;;4.68;3.63;;;;;;;7.41;100.00;99465.31;5184488;28;20034;-76
2022/12/22 05:09:09;;;;;;;5.70;3.50;;;;;;;7.30;100.00;99457.09;5168637;28;20026;-76
2022/12/22 05:11:39;;;;;;;5.90;3.53;;;;;;;7.28;100.00;99457.22;5186343;28;20041;-77
2022/12/22 05:14:09;;;;;;;5.93;3.70;;;;;;;7.21;100.00;99445.38;5185185;28;20030;-76
2022/12/22 05:16:39;;;;;;;5.85;3.80;;;;;;;7.17;100.00;99444.66;5173421;28;20022;-76
2022/12/22 05:19:10;;;;;;;4.63;3.63;;;;;;;7.00;100.00;99446.22;5190166;28;20105;-75
2022/12/22 05:21:40;;;;;;;6.50;3.80;;;;;;;6.97;100.00;99436.78;5171407;28;20026;-77
2022/12/22 05:24:10;;;;;;;6.75;3.70;;;;;;;6.98;100.00;99445.44;5170326;28;20031;-77
2022/12/22 05:26:41;;;;;;;4.90;3.70;;;;;;;6.81;100.00;99429.66;5183786;28;20296;-76
2022/12/22 05:29:11;;;;;;;5.03;3.55;;;;;;;6.94;100.00;99428.28;5170862;28;20025;-78
2022/12/22 05:31:41;;;;;;;5.65;4.03;;;;;;;6.90;100.00;99429.31;5168912;28;20026;-76
2022/12/22 05:34:12;;;;;;;6.22;3.72;;;;;;;6.96;100.00;99421.28;5169008;28;20030;-75
2022/12/22 05:36:42;;;;;;;6.30;3.90;;;;;;;6.95;100.00;99422.19;5165126;28;20061;-75
2022/12/22 05:39:12;;;;;;;11.38;4.03;;;;;;;6.86;100.00;99417.34;5165801;28;20033;-78
2022/12/22 05:41:42;;;;;;;6.00;3.72;;;;;;;6.83;100.00;99418.34;5185774;28;20022;-77
2022/12/22 05:44:13;;;;;;;5.30;3.60;;;;;;;6.78;100.00;99415.03;5164790;28;20058;-77
2022/12/22 05:46:43;;;;;;;5.10;4.00;;;;;;;6.80;100.00;99415.81;5172049;28;20095;-76
2022/12/22 05:49:13;;;;;;;5.45;4.05;;;;;;;6.70;100.00;99405.84;5171365;28;20472;-76
2022/12/22 05:51:44;;;;;;;6.28;3.92;;;;;;;6.84;100.00;99406.19;5185095;28;20022;-76
2022/12/22 05:54:14;;;;;;;6.43;4.43;;;;;;;7.00;100.00;99404.66;5171379;28;20027;-77
2022/12/22 05:56:45;;;;;;;5.97;4.38;;;;;;;7.03;100.00;99402.81;5168847;28;20519;-75
2022/12/22 05:59:15;;;;;;;6.15;4.15;;;;;;;7.01;100.00;99401.16;5186482;28;20120;-76
2022/12/22 06:01:45;;;;;;;5.65;4.13;;;;;;;6.96;100.00;99397.91;5171429;28;20049;-75
2022/12/22 06:04:17;;;;;;;5.70;4.00;;;;;;;6.78;100.00;99388.25;5171317;28;20100;-78
2022/12/22 06:06:47;;;;;;;5.80;4.03;;;;;;;6.95;100.00;99391.03;5168861;28;20038;-78
2022/12/22 06:09:17;;;;;;;6.68;4.28;;;;;;;7.03;100.00;99383.75;5170930;28;20096;-78
2022/12/22 06:11:48;;;;;;;5.57;4.40;;;;;;;7.08;100.00;99387.03;5172870;28;20447;-75
2022/12/22 06:14:18;;;;;;;6.70;4.25;;;;;;;6.97;100.00;99377.06;5171119;28;20113;-75
2022/12/22 06:16:48;;;;;;;5.88;4.03;;;;;;;6.97;100.00;99374.47;5168636;28;20052;-75
2022/12/22 06:19:18;;;;;;;6.28;3.97;;;;;;;6.95;100.00;99378.03;5175214;28;20037;-76
2022/12/22 06:21:49;;;;;;;6.03;3.95;;;;;;;6.93;100.00;99382.47;5166978;28;20492;-76
2022/12/22 06:24:19;;;;;;;6.60;4.25;;;;;;;6.99;100.00;99383.06;5167214;28;20404;-77
2022/12/22 06:26:49;;;;;;;7.32;4.55;;;;;;;6.84;100.00;99382.81;5173982;28;20033;-78
2022/12/22 06:29:20;;;;;;;6.30;4.50;;;;;;;6.91;100.00;99379.09;5165806;28;20026;-77
2022/12/22 06:31:50;;;;;;;6.63;4.25;;;;;;;6.87;100.00;99377.50;5184603;28;20095;-75
2022/12/22 06:34:21;;;;;;;6.38;3.75;;;;;;;6.85;100.00;99368.91;5165446;28;20100;-76
2022/12/22 06:36:51;;;;;;;7.35;4.30;;;;;;;6.75;100.00;99367.63;5161615;28;20169;-77
2022/12/22 06:39:21;;;;;;;7.15;4.15;;;;;;;6.91;100.00;99373.88;5178554;28;20018;-77
2022/12/22 06:44:41;;;;;;;7.15;4.13;;;;;;;6.95;100.00;99365.88;5167496;28;20041;-75
2022/12/22 06:47:11;;;;;;;6.30;4.10;;;;;;;6.93;100.00;99366.88;5171438;28;20368;-77
2022/12/22 06:49:41;;;;;;;7.13;4.32;;;;;;;7.00;100.00;99365.72;5171031;28;20125;-78
2022/12/22 06:52:12;;;;;;;7.05;4.30;;;;;;;7.00;100.00;99363.13;5174094;28;20026;-75
2022/12/22 06:54:42;;;;;;;7.90;3.78;;;;;;;6.96;100.00;99361.56;5189048;28;20026;-78
2022/12/22 06:57:12;;;;;;;6.57;4.15;;;;;;;7.07;100.00;99355.00;5174519;28;20500;-74
2022/12/22 06:59:43;;;;;;;8.40;4.13;;;;;;;6.95;100.00;99359.88;5170002;28;20109;-77
2022/12/22 07:02:13;;;;;;;6.35;4.10;;;;;;;6.94;100.00;99353.00;5173562;28;20022;-75
2022/12/22 07:04:44;;;;;;;7.63;4.10;;;;;;;7.08;100.00;99343.72;5185872;28;20069;-75
2022/12/22 07:07:14;;;;;;;7.70;4.45;;;;;;;7.04;100.00;99354.28;5166526;28;20496;-77
2022/12/22 07:09:44;;;;;;;10.13;4.68;;;;;;;7.10;100.00;99354.06;5169947;28;20033;-75
2022/12/22 07:12:15;;;;;;;7.82;4.20;;;;;;;7.05;100.00;99353.38;5174550;28;20576;-75
2022/12/22 07:14:45;;;;;;;6.97;4.22;;;;;;;7.02;100.00;99356.09;5174441;28;20094;-77
2022/12/22 07:17:15;;;;;;;6.80;4.32;;;;;;;7.09;100.00;99357.56;5180230;28;20030;-78
2022/12/22 07:19:46;;;;;;;7.05;4.70;;;;;;;7.15;100.00;99347.75;5178099;28;20025;-75
2022/12/22 07:22:16;;;;;;;8.00;4.70;;;;;;;7.20;100.00;99350.16;5170228;28;20065;-75
2022/12/22 07:24:46;;;;;;;8.18;4.97;;;;;;;7.16;100.00;99343.41;5173852;28;20121;-75
2022/12/22 07:27:17;;;;;;;9.80;4.90;;;;;;;7.20;100.00;99343.22;5172706;28;20037;-76
2022/12/22 07:29:47;;;;;;;9.15;4.68;;;;;;;7.19;100.00;99344.13;5171137;28;20021;-73
2022/12/22 07:32:17;;;;;;;8.70;5.07;;;;;;;7.20;100.00;99345.81;5170216;28;20506;-77
2022/12/22 07:34:47;;;;;;;9.00;4.63;;;;;;;7.19;100.00;99344.13;5165587;28;20447;-75
2022/12/22 07:37:18;;;;;;;8.20;5.13;;;;;;;7.18;100.00;99336.38;5173624;28;20026;-77
2022/12/22 07:39:48;;;;;;;7.78;5.10;;;;;;;7.19;100.00;99348.47;5173811;28;20022;-75
2022/12/22 07:45:07;;;;;;;10.82;5.63;;;;;;;7.25;100.00;99332.63;5171588;28;20068;-77
2022/12/22 07:47:38;;;;;;;8.27;5.80;;;;;;;7.20;100.00;99334.56;5172334;28;20643;-76
2022/12/22 07:50:24;;;;;;;9.02;5.72;;;;;;;7.24;100.00;99331.78;5186290;28;20034;-75
2022/12/22 07:52:56;;;;;;;10.23;5.93;;;;;;;7.23;100.00;99324.91;5170836;28;20127;-75
2022/12/22 07:55:29;;;;;;;8.85;5.82;;;;;;;7.21;100.00;99320.66;5172340;28;20029;-74
2022/12/22 07:57:59;;;;;;;11.15;6.13;;;;;;;7.24;100.00;99321.38;5171043;28;20064;-77
2022/12/22 08:00:30;;;;;;;9.15;5.47;;;;;;;7.20;100.00;99316.38;5187545;28;20504;-77
2022/12/22 08:03:01;;;;;;;10.80;6.07;;;;;;;7.20;100.00;99305.97;5173755;28;20026;-73
2022/12/22 08:05:31;;;;;;;10.13;6.20;;;;;;;7.19;100.00;99314.69;5186685;28;20065;-77
2022/12/22 08:08:02;;;;;;;8.85;5.75;;;;;;;7.14;100.00;99308.84;5164351;28;20562;-77
2022/12/22 08:10:32;;;;;;;11.65;6.65;;;;;;;7.21;100.00;99318.91;5185560;28;20061;-76
2022/12/22 08:13:02;;;;;;;8.73;5.90;;;;;;;7.23;100.00;99304.09;5170950;28;20037;-75
2022/12/22 08:15:33;;;;;;;10.13;7.07;;;;;;;7.24;100.00;99308.41;5171717;28;20176;-73
2022/12/22 08:18:03;;;;;;;10.70;5.95;;;;;;;7.28;100.00;99310.81;5174831;28;20108;-75
2022/12/22 08:20:33;;;;;;;10.02;6.45;;;;;;;7.34;100.00;99305.34;5173130;28;20022;-77
2022/12/22 08:23:04;;;;;;;9.52;6.38;;;;;;;7.32;100.00;99312.34;5186249;28;20018;-73
2022/12/22 08:25:34;;;;;;;7.97;5.88;;;;;;;7.39;100.00;99311.16;5185930;28;20030;-75
2022/12/22 08:28:04;;;;;;;11.73;6.68;;;;;;;7.42;100.00;99311.06;5169872;28;20108;-74
2022/12/22 08:30:35;;;;;;;11.02;6.32;;;;;;;7.31;100.00;99305.47;5170364;28;20079;-73
2022/12/22 08:33:05;;;;;;;12.10;6.32;;;;;;;7.38;100.00;99304.28;5148280;28;20454;-74
2022/12/22 08:35:35;;;;;;;11.07;6.78;;;;;;;7.42;100.00;99303.28;5170956;28;20044;-74
2022/12/22 08:38:06;;;;;;;9.73;6.80;;;;;;;7.35;100.00;99303.59;5166681;28;20061;-74
2022/12/22 08:40:37;;;;;;;10.82;6.93;;;;;;;7.38;100.00;99299.09;5169688;28;20026;-75
2022/12/22 08:43:09;;;;;;;9.68;6.32;;;;;;;7.41;100.00;99304.19;5171025;28;20037;-73
2022/12/22 08:45:41;;;;;;;11.25;6.93;;;;;;;7.51;100.00;99304.63;5170494;28;20116;-73
2022/12/22 08:48:11;;;;;;;10.90;6.57;;;;;;;7.47;100.00;99303.03;5176828;28;20026;-72
2022/12/22 08:50:42;;;;;;;11.50;7.13;;;;;;;7.49;100.00;99302.09;5171195;28;20022;-74
2022/12/22 08:53:12;;;;;;;12.30;6.10;;;;;;;7.41;100.00;99301.59;5187188;28;20029;-74
2022/12/22 08:55:53;;;;;;;9.05;6.03;;;;;;;7.41;100.00;99298.97;5169561;28;20022;-74
2022/12/22 08:58:23;;;;;;;9.98;5.97;;;;;;;7.46;100.00;99304.81;5167975;28;20102;-74
2022/12/22 09:00:53;;;;;;;12.13;6.78;;;;;;;7.37;100.00;99301.78;5172186;28;20038;-74
2022/12/22 09:03:24;;;;;;;9.25;6.32;;;;;;;7.39;100.00;99307.75;5169809;28;20033;-74
2022/12/22 09:06:02;;;;;;;10.95;6.70;;;;;;;7.37;100.00;99309.56;5171114;28;20029;-74
2022/12/22 09:08:32;;;;;;;9.68;6.43;;;;;;;7.46;100.00;99302.22;5164649;28;20042;-75
2022/12/22 09:11:03;;;;;;;9.48;6.35;;;;;;;7.42;100.00;99310.22;5169590;28;20041;-75
2022/12/22 09:13:33;;;;;;;10.75;6.57;;;;;;;7.50;100.00;99314.16;5169789;28;20041;-73
2022/12/22 09:16:07;;;;;;;10.18;6.03;;;;;;;7.63;100.00;99304.94;5169030;28;20022;-74
2022/12/22 09:18:38;;;;;;;8.50;6.32;;;;;;;7.59;100.00;99308.59;5174580;28;20030;-75
2022/12/22 09:21:08;;;;;;;9.10;5.95;;;;;;;7.56;100.00;99311.28;5172876;28;20022;-74
2022/12/22 09:23:38;;;;;;;8.15;5.93;;;;;;;7.56;100.00;99311.28;5169771;28;20121;-74
2022/12/22 09:26:11;;;;;;;10.02;6.07;;;;;;;7.67;100.00;99306.47;5169720;28;20021;-74
2022/12/22 09:28:42;;;;;;;8.82;6.03;;;;;;;7.60;100.00;99312.88;5166819;28;20578;-74
2022/12/22 09:31:13;;;;;;;8.00;5.60;;;;;;;7.68;100.00;99302.97;5167622;28;20029;-74
2022/12/22 09:33:43;;;;;;;8.80;5.82;;;;;;;7.54;100.00;99310.50;5168488;28;20048;-74
2022/12/22 09:36:17;;;;;;;8.60;5.97;;;;;;;7.46;100.00;99309.16;5168089;28;20499;-74
2022/12/22 09:38:48;;;;;;;9.50;6.00;;;;;;;7.42;100.00;99305.00;5171768;28;20030;-73
2022/12/22 09:41:20;;;;;;;10.75;5.93;;;;;;;7.45;100.00;99305.72;5169862;28;20522;-73
2022/12/22 09:43:50;;;;;;;9.85;6.07;;;;;;;7.41;100.00;99298.13;5166953;28;20095;-75
2022/12/22 09:46:23;;;;;;;9.82;6.55;;;;;;;7.38;100.00;99308.66;5171909;28;20026;-73
2022/12/22 09:48:54;;;;;;;8.05;5.40;;;;;;;7.40;100.00;99309.44;5171451;28;20588;-73
2022/12/22 09:51:25;;;;;;;9.85;6.45;;;;;;;7.38;100.00;99312.09;5164643;28;20026;-73
2022/12/22 09:53:59;;;;;;;9.63;6.50;;;;;;;7.42;100.00;99302.41;5182944;28;20033;-73
2022/12/22 09:56:30;;;;;;;12.77;7.35;;;;;;;7.46;100.00;99304.81;5168814;28;20038;-74
2022/12/22 09:59:00;;;;;;;10.07;7.28;;;;;;;7.47;100.00;99301.31;5166309;28;20389;-74
2022/12/22 10:01:51;;;;;;;9.30;6.05;;;;;;;7.49;100.00;99312.47;5183691;28;20026;-72
2022/12/22 10:04:54;;;;;;;8.48;6.32;;;;;;;7.53;100.00;99306.22;5183922;28;20033;-75
2022/12/22 10:07:38;;;;;;;10.23;6.60;;;;;;;7.67;100.00;99310.84;5164278;28;20094;-74
2022/12/22 10:10:11;;;;;;;11.52;5.78;;;;;;;7.82;100.00;99308.41;5167006;28;20105;-74
2022/12/22 10:12:41;;;;;;;8.93;5.85;;;;;;;7.83;100.00;99307.47;5169571;28;20096;-74
2022/12/22 10:15:12;;;;;;;7.80;5.68;;;;;;;7.85;100.00;99313.47;5167165;28;20121;-74
2022/12/22 10:17:42;;;;;;;8.43;5.38;;;;;;;8.02;100.00;99312.72;5168556;28;20022;-74
2022/12/22 10:20:21;;;;;;;9.40;6.50;;;;;;;7.96;100.00;99318.16;5163358;28;20026;-74
2022/12/22 10:23:01;;;;;;;11.35;7.97;;;;;;;8.00;100.00;99315.38;5168967;28;20386;-76
2022/12/22 10:25:31;;;;;;;10.18;6.82;;;;;;;8.02;100.00;99313.53;5183147;28;20213;-73
2022/12/22 10:28:06;;;;;;;10.85;6.40;;;;;;;8.05;100.00;99315.16;5176256;28;20390;-75
2022/12/22 10:30:39;;;;;;;10.25;6.95;;;;;;;8.10;100.00;99310.59;5176012;28;20108;-74
2022/12/22 10:33:17;;;;;;;11.63;6.95;;;;;;;8.07;100.00;99308.97;5171583;28;20030;-73
2022/12/22 10:35:53;;;;;;;17.02;9.38;;;;;;;8.07;100.00;99316.75;5171077;28;20026;-74
2022/12/22 10:38:40;;;;;;;15.27;8.70;;;;;;;8.19;100.00;99321.44;5190222;28;20025;-73
2022/12/22 10:41:17;;;;;;;14.63;8.45;;;;;;;8.09;100.00;99320.16;5173277;28;20030;-74
2022/12/22 10:43:57;;;;;;;12.93;8.00;;;;;;;8.12;100.00;99330.44;5177346;28;20180;-74
2022/12/22 10:46:39;;;;;;;14.45;10.20;;;;;;;8.14;100.00;99328.59;5168484;28;20069;-74
2022/12/22 10:49:13;;;;;;;12.57;8.73;;;;;;;8.13;100.00;99326.91;5167302;28;20022;-74
2022/12/22 10:51:56;;;;;;;13.10;8.87;;;;;;;8.18;100.00;99337.97;5173573;28;20017;-74
2022/12/22 10:54:32;;;;;;;15.07;8.48;;;;;;;8.31;100.00;99340.84;5175101;28;20057;-74
2022/12/22 10:57:13;;;;;;;11.68;8.10;;;;;;;8.19;100.00;99338.84;5169743;28;20061;-74
2022/12/22 10:59:46;;;;;;;11.80;8.27;;;;;;;8.13;100.00;99337.31;5169949;28;20026;-74
2022/12/22 11:02:19;;;;;;;13.88;8.18;;;;;;;8.12;100.00;99351.25;5171300;28;20506;-73
2022/12/22 11:04:51;;;;;;;38.95;20.70;;;;;;;8.19;100.00;99346.66;5168138;28;20524;-75
2022/12/22 11:07:23;;;;;;;76.25;37.03;;;;;;;8.27;100.00;99342.78;5166853;28;20492;-74
2022/12/22 11:09:53;;;;;;;41.22;23.58;;;;;;;8.26;100.00;99341.09;5168621;28;20085;-74
2022/12/22 11:12:39;;;;;;;37.97;26.15;;;;;;;8.25;100.00;99336.78;5172152;28;20030;-74
2022/12/22 11:15:26;;;;;;;21.67;13.90;;;;;;;8.29;100.00;99337.47;5174106;28;20038;-73
2022/12/22 11:18:18;;;;;;;18.83;10.48;;;;;;;8.33;100.00;99350.28;5172168;28;20140;-74
2022/12/22 11:21:02;;;;;;;29.35;16.88;;;;;;;8.46;100.00;99341.00;5167986;28;20034;-75
2022/12/22 11:23:41;;;;;;;25.25;14.30;;;;;;;8.63;100.00;99343.66;5168757;28;20048;-74
2022/12/22 11:26:54;;;;;;;33.45;18.52;;;;;;;8.55;100.00;99347.53;5172636;28;20496;-75
2022/12/22 11:29:49;;;;;;;22.20;13.88;;;;;;;8.78;100.00;99347.28;5169887;28;20038;-73
2022/12/22 11:32:35;;;;;;;21.83;12.27;;;;;;;8.77;100.00;99345.59;5172700;28;20037;-73
2022/12/22 11:35:37;;;;;;;16.13;10.02;;;;;;;8.78;100.00;99348.16;5171220;28;20049;-74
2022/12/22 11:38:16;;;;;;;14.75;8.60;;;;;;;8.79;100.00;99349.84;5174029;28;20045;-75
2022/12/22 11:40:54;;;;;;;14.27;8.68;;;;;;;8.82;100.00;99354.03;5171806;28;20075;-75
2022/12/22 11:43:33;;;;;;;9.20;6.70;;;;;;;8.95;100.00;99361.19;5169575;28;20439;-73
2022/12/22 11:46:22;;;;;;;9.10;6.40;;;;;;;8.91;100.00;99357.03;5168571;28;20034;-74
2022/12/22 11:49:13;;;;;;;9.18;6.47;;;;;;;9.06;100.00;99358.91;5167943;28;20510;-75
2022/12/22 11:52:05;;;;;;;9.82;6.55;;;;;;;9.16;100.00;99350.56;5169011;28;20030;-75
2022/12/22 11:55:19;;;;;;;12.40;9.13;;;;;;;9.06;100.00;99361.50;5171112;28;20084;-74
2022/12/22 11:57:56;;;;;;;13.15;8.90;;;;;;;9.23;100.00;99371.94;5173470;28;20083;-74
2022/12/22 12:00:35;;;;;;;9.35;7.10;;;;;;;9.17;100.00;99386.13;5170140;28;20034;-74
2022/12/22 12:04:07;;;;;;;11.02;7.70;;;;;;;9.16;100.00;99383.59;5169245;28;20018;-73
2022/12/22 12:06:58;;;;;;;9.50;6.65;;;;;;;9.16;100.00;99394.03;5150731;28;20041;-74
2022/12/22 12:09:34;;;;;;;10.98;7.53;;;;;;;9.23;100.00;99396.28;5150002;28;20340;-74
2022/12/22 12:12:27;;;;;;;9.95;7.43;;;;;;;9.33;100.00;99397.50;5163852;28;20506;-74
2022/12/22 12:15:24;;;;;;;10.13;7.13;;;;;;;9.17;100.00;99404.38;5168199;28;20129;-75
2022/12/22 12:18:29;;;;;;;11.63;7.03;;;;;;;9.29;100.00;99401.16;5169164;28;20127;-74
2022/12/22 12:21:24;;;;;;;12.30;8.10;;;;;;;9.24;100.00;99410.13;5170794;28;20034;-74
2022/12/22 12:24:35;;;;;;;12.13;7.32;;;;;;;9.22;100.00;99411.97;5169270;28;20570;-73
2022/12/22 12:27:26;;;;;;;14.13;8.32;;;;;;;9.21;100.00;99416.34;5161462;28;20033;-74
2022/12/22 12:30:16;;;;;;;14.60;9.02;;;;;;;9.09;100.00;99429.09;5166261;28;20038;-74
2022/12/22 12:33:10;;;;;;;15.40;9.32;;;;;;;9.22;100.00;99438.03;5168712;28;20491;-74
2022/12/22 12:35:52;;;;;;;19.35;10.52;;;;;;;9.15;100.00;99439.25;5168604;28;20033;-74
2022/12/22 12:38:33;;;;;;;16.13;10.15;;;;;;;9.19;100.00;99443.41;5165275;28;20026;-73
2022/12/22 12:41:19;;;;;;;21.25;11.63;;;;;;;9.08;100.00;99448.28;5169037;28;20546;-73
2022/12/22 12:43:52;;;;;;;20.20;12.13;;;;;;;9.10;100.00;99443.00;5167907;28;20532;-74
2022/12/22 12:46:50;;;;;;;25.02;13.50;;;;;;;9.13;100.00;99443.69;5165100;28;20499;-73
2022/12/22 12:49:32;;;;;;;21.02;12.25;;;;;;;9.20;100.00;99445.94;5165413;28;20026;-74
2022/12/22 12:52:09;;;;;;;21.52;13.50;;;;;;;9.23;100.00;99444.94;5170720;28;20072;-74
2022/12/22 12:54:45;;;;;;;22.38;13.63;;;;;;;9.14;100.00;99448.00;5170905;28;20030;-75
2022/12/22 12:57:24;;;;;;;21.50;12.75;;;;;;;9.20;100.00;99458.13;5168897;28;20033;-73
2022/12/22 12:59:57;;;;;;;20.30;13.27;;;;;;;9.28;100.00;99453.41;5168710;28;20315;-74
2022/12/22 13:02:28;;;;;;;21.02;14.18;;;;;;;9.21;100.00;99452.00;5170754;28;20100;-73
2022/12/22 13:05:12;;;;;;;22.52;13.73;;;;;;;9.18;100.00;99459.97;5168924;28;20293;-73
2022/12/22 13:08:13;;;;;;;23.83;14.60;;;;;;;9.17;100.00;99474.75;5164146;28;20314;-75
2022/12/22 13:10:47;;;;;;;24.67;15.45;;;;;;;9.03;100.00;99471.09;5169052;28;20502;-74
2022/12/22 13:13:20;;;;;;;26.83;15.55;;;;;;;9.10;100.00;99464.66;5168711;28;20125;-74
2022/12/22 13:15:59;;;;;;;27.92;16.02;;;;;;;9.22;100.00;99467.56;5167306;28;20620;-73
2022/12/22 13:18:32;;;;;;;28.20;17.10;;;;;;;9.17;100.00;99476.50;5164379;28;20515;-75
2022/12/22 13:21:14;;;;;;;29.17;17.10;;;;;;;9.03;100.00;99483.31;5171652;28;20030;-73
2022/12/22 13:23:54;;;;;;;30.17;16.55;;;;;;;9.15;100.00;99488.78;5169069;28;20169;-74
2022/12/22 13:26:30;;;;;;;28.58;16.80;;;;;;;9.12;100.00;99501.09;5171953;28;20121;-75
2022/12/22 13:29:14;;;;;;;28.30;16.13;;;;;;;9.12;100.00;99506.31;5170385;28;20403;-75
2022/12/22 13:31:53;;;;;;;25.45;15.35;;;;;;;9.15;100.00;99510.47;5163859;28;20072;-72
2022/12/22 13:34:29;;;;;;;26.83;15.00;;;;;;;9.14;100.00;99507.94;5167814;28;20280;-75
2022/12/22 13:37:11;;;;;;;29.17;14.68;;;;;;;9.19;100.00;99522.44;5167346;28;20062;-74
2022/12/22 13:39:41;;;;;;;24.23;14.23;;;;;;;9.05;100.00;99524.00;5182079;28;20042;-74
2022/12/22 13:42:12;;;;;;;23.17;13.07;;;;;;;9.05;100.00;99528.38;5176202;28;20177;-74
2022/12/22 13:44:42;;;;;;;25.90;14.50;;;;;;;9.03;100.00;99544.06;5166212;28;20030;-75
2022/12/22 13:47:14;;;;;;;24.20;14.23;;;;;;;9.02;100.00;99545.00;5166920;28;20025;-72
2022/12/22 13:49:44;;;;;;;22.63;12.85;;;;;;;8.95;100.00;99551.41;5176750;28;20026;-74
2022/12/22 13:52:17;;;;;;;21.92;11.93;;;;;;;9.00;100.00;99553.78;5164491;28;20595;-74
2022/12/22 13:54:48;;;;;;;21.98;12.48;;;;;;;9.04;100.00;99560.56;5169693;28;20030;-74
2022/12/22 13:57:20;;;;;;;21.27;11.68;;;;;;;9.04;100.00;99569.22;5171718;28;20018;-75
2022/12/22 13:59:51;;;;;;;21.65;11.82;;;;;;;8.98;100.00;99566.91;5169557;28;20030;-74
2022/12/22 14:02:21;;;;;;;21.23;11.32;;;;;;;8.95;100.00;99574.84;5173115;28;20018;-75
2022/12/22 14:05:10;;;;;;;22.52;12.20;;;;;;;8.92;100.00;99569.75;5171239;28;20101;-74
2022/12/22 14:08:05;;;;;;;20.88;11.85;;;;;;;8.89;100.00;99577.72;5168428;28;20399;-72
2022/12/22 14:10:42;;;;;;;19.92;11.77;;;;;;;8.98;100.00;99582.53;5172026;28;20185;-74
2022/12/22 14:13:17;;;;;;;22.63;12.02;;;;;;;8.87;100.00;99582.16;5175136;28;20118;-75
2022/12/22 14:15:57;;;;;;;22.48;12.30;;;;;;;8.92;100.00;99592.38;5172335;28;20050;-74
2022/12/22 14:18:29;;;;;;;22.98;12.80;;;;;;;8.76;100.00;99600.00;5156216;28;20057;-75
2022/12/22 14:21:00;;;;;;;20.80;12.30;;;;;;;8.78;100.00;99597.34;5175236;28;20495;-74
2022/12/22 14:23:37;;;;;;;20.88;12.35;;;;;;;8.79;100.00;99606.84;5174181;28;20087;-75
2022/12/22 14:26:15;;;;;;;24.55;12.90;;;;;;;8.73;100.00;99607.94;5169333;28;20031;-73
2022/12/22 14:28:52;;;;;;;23.45;13.02;;;;;;;8.72;100.00;99606.25;5172376;28;20376;-73
2022/12/22 14:31:22;;;;;;;24.83;12.55;;;;;;;8.66;100.00;99606.53;5186884;28;20018;-73
2022/12/22 14:34:04;;;;;;;21.60;11.77;;;;;;;8.64;100.00;99616.19;5190174;28;20549;-75
2022/12/22 14:36:36;;;;;;;22.15;12.75;;;;;;;8.68;100.00;99609.91;5172681;28;20030;-73
2022/12/22 14:39:09;;;;;;;22.13;11.93;;;;;;;8.63;100.00;99601.47;5169028;28;20033;-73
2022/12/22 14:41:52;;;;;;;23.45;12.90;;;;;;;8.62;100.00;99606.72;5172683;28;20433;-74
2022/12/22 14:44:27;;;;;;;24.33;12.77;;;;;;;8.51;100.00;99614.16;5172981;28;20034;-74
2022/12/22 14:47:16;;;;;;;23.92;13.93;;;;;;;8.41;100.00;99618.06;5175826;28;20488;-73
2022/12/22 14:49:49;;;;;;;25.95;13.50;;;;;;;8.39;100.00;99620.72;5171949;28;20068;-75
2022/12/22 14:52:34;;;;;;;21.95;13.00;;;;;;;8.39;100.00;99623.31;5175977;28;20173;-75
2022/12/22 14:55:21;;;;;;;25.45;14.65;;;;;;;8.24;100.00;99621.34;5175197;28;20530;-75
2022/12/22 14:57:55;;;;;;;35.50;17.80;;;;;;;8.17;100.00;99625.09;5170851;28;20033;-75
2022/12/22 15:00:29;;;;;;;28.73;16.70;;;;;;;8.16;100.00;99633.81;5169221;28;20113;-75
2022/12/22 15:03:25;;;;;;;30.85;17.02;;;;;;;8.13;100.00;99627.88;5203964;22;20346;-77
2022/12/22 15:05:55;;;;;;;28.13;16.13;;;;;;;8.09;100.00;99636.72;5229427;28;20226;-77
2022/12/22 15:08:42;;;;;;;26.10;15.10;;;;;;;8.00;100.00;99635.34;5238632;28;20032;-77
2022/12/22 15:11:16;;;;;;;25.33;14.60;;;;;;;8.10;100.00;99638.41;5233617;28;20041;-77
2022/12/22 15:13:48;;;;;;;24.70;14.73;;;;;;;8.02;100.00;99640.50;5237355;28;20028;-78
2022/12/22 15:16:21;;;;;;;26.88;15.00;;;;;;;7.95;100.00;99652.91;5232942;28;20033;-78
2022/12/22 15:18:52;;;;;;;30.45;16.63;;;;;;;7.76;100.00;99653.69;5231486;28;20071;-78
2022/12/22 15:21:22;;;;;;;29.05;15.95;;;;;;;7.67;100.00;99654.88;5232471;28;20110;-78
2022/12/22 15:23:52;;;;;;;27.55;15.60;;;;;;;7.54;100.00;99653.66;5231061;28;20394;-78
2022/12/22 15:26:22;;;;;;;28.30;15.52;;;;;;;7.44;100.00;99661.84;5238416;28;20021;-76
2022/12/22 15:28:53;;;;;;;27.35;15.18;;;;;;;7.35;100.00;99667.41;5236015;28;20021;-78
2022/12/22 15:31:24;;;;;;;28.38;15.55;;;;;;;7.27;100.00;99668.59;5234754;28;20044;-77
2022/12/22 15:33:59;;;;;;;30.65;16.25;;;;;;;7.16;100.00;99681.13;5233904;28;20032;-75
2022/12/22 15:36:29;;;;;;;29.13;16.17;;;;;;;7.08;100.00;99685.75;5230971;28;20036;-78
2022/12/22 15:39:00;;;;;;;28.73;15.88;;;;;;;7.03;100.00;99682.44;5227465;28;20025;-77
2022/12/22 15:41:30;;;;;;;30.17;16.15;;;;;;;6.99;100.00;99681.72;5234837;28;20035;-77
2022/12/22 15:44:00;;;;;;;26.30;15.13;;;;;;;6.92;100.00;99682.00;5235253;28;20438;-76